Time;durP1;ratioP1;P1;durP2;ratioP2;P2;SDS_P1;SDS_P2;PMS_P1;PMS_P2;Temp;Humidity;BMP_temperature;BMP_pressure;BME280_temperature;BME280_humidity;BME280_pressure;Samples;Min_cycle;Max_cycle;Signal;HPM_P1;HPM_P2
2023/11/02 00:01:32;;;;;;;10.63;4.72;;;;;;;;;;5008765;28;20030;-80
2023/11/02 00:03:58;;;;;;;9.57;4.95;;;;;;;;;;5012875;28;20022;-80
2023/11/02 00:06:29;;;;;;;13.48;4.88;;;;;;;;;;4995090;28;20061;-80
2023/11/02 00:09:10;;;;;;;12.13;4.75;;;;;;;;;;5012738;28;20053;-79
2023/11/02 00:11:50;;;;;;;9.10;4.55;;;;;;;;;;4996604;28;20150;-80
2023/11/02 00:14:17;;;;;;;7.57;4.40;;;;;;;;;;4992641;28;20031;-80
2023/11/02 00:16:44;;;;;;;10.50;4.75;;;;;;;;;;4974868;28;20030;-80
2023/11/02 00:19:26;;;;;;;9.43;4.00;;;;;;;;;;4975477;28;20244;-79
2023/11/02 00:21:52;;;;;;;6.65;3.95;;;;;;;;;;4975029;28;20026;-80
2023/11/02 00:24:17;;;;;;;9.57;4.10;;;;;;;;;;4994597;28;20524;-79
2023/11/02 00:26:43;;;;;;;5.88;3.20;;;;;;;;;;4994823;28;20144;-80
2023/11/02 00:29:08;;;;;;;12.02;4.20;;;;;;;;;;4994555;28;20030;-79
2023/11/02 00:31:34;;;;;;;9.70;4.65;;;;;;;;;;5012673;28;20083;-79
2023/11/02 00:34:00;;;;;;;8.10;4.65;;;;;;;;;;5012718;28;20034;-79
2023/11/02 00:36:29;;;;;;;9.90;4.32;;;;;;;;;;4994804;28;20460;-79
2023/11/02 00:38:57;;;;;;;8.15;4.57;;;;;;;;;;4994060;28;20026;-78
2023/11/02 00:41:23;;;;;;;8.95;4.53;;;;;;;;;;5011624;28;20056;-79
2023/11/02 00:43:48;;;;;;;9.15;4.53;;;;;;;;;;4994266;28;20076;-80
2023/11/02 00:46:14;;;;;;;9.57;4.00;;;;;;;;;;4990112;28;20026;-80
2023/11/02 00:48:40;;;;;;;8.48;4.30;;;;;;;;;;4976576;28;20027;-79
2023/11/02 00:51:27;;;;;;;8.05;3.88;;;;;;;;;;4975859;28;20074;-80
2023/11/02 00:53:58;;;;;;;7.72;4.15;;;;;;;;;;4994079;28;20034;-80
2023/11/02 00:56:34;;;;;;;6.53;3.53;;;;;;;;;;4991810;28;20046;-79
2023/11/02 00:59:00;;;;;;;10.27;3.60;;;;;;;;;;5008582;28;20058;-80
2023/11/02 01:01:27;;;;;;;6.60;3.78;;;;;;;;;;4993801;28;20100;-80
2023/11/02 01:04:48;;;;;;;6.40;3.40;;;;;;;;;;4975439;28;20263;-80
2023/11/02 01:07:15;;;;;;;7.07;3.70;;;;;;;;;;4975815;28;20045;-79
2023/11/02 01:09:47;;;;;;;5.30;3.33;;;;;;;;;;4975584;28;20030;-79
2023/11/02 01:12:15;;;;;;;;;;;;;;;;;;5012708;28;20053;-79
2023/11/02 01:14:48;;;;;;;8.65;3.38;;;;;;;;;;5010629;28;19921;-80
2023/11/02 01:17:20;;;;;;;8.07;2.95;;;;;;;;;;4996828;28;20033;-79
2023/11/02 01:19:56;;;;;;;5.65;3.13;;;;;;;;;;4998785;28;20365;-81
2023/11/02 01:22:41;;;;;;;6.60;3.15;;;;;;;;;;5017033;28;20337;-79
2023/11/02 01:25:11;;;;;;;5.03;3.08;;;;;;;;;;4998430;28;20021;-77
2023/11/02 01:27:37;;;;;;;5.82;3.10;;;;;;;;;;4997646;28;20025;-80
2023/11/02 01:30:36;;;;;;;7.25;3.17;;;;;;;;;;4998227;28;20030;-80
2023/11/02 01:33:07;;;;;;;7.78;3.47;;;;;;;;;;5015753;28;20022;-80
2023/11/02 01:35:44;;;;;;;6.38;2.95;;;;;;;;;;5014578;28;20022;-79
2023/11/02 01:38:13;;;;;;;6.22;3.22;;;;;;;;;;5015582;28;20030;-80
2023/11/02 01:40:55;;;;;;;6.28;3.25;;;;;;;;;;4998348;28;20139;-79
2023/11/02 01:43:41;;;;;;;5.75;3.17;;;;;;;;;;5015419;28;20101;-77
2023/11/02 01:46:19;;;;;;;6.72;3.13;;;;;;;;;;5014594;28;20030;-79
2023/11/02 01:48:51;;;;;;;6.20;3.15;;;;;;;;;;4996703;28;20022;-79
2023/11/02 01:51:31;;;;;;;5.88;2.92;;;;;;;;;;4996369;28;20100;-79
2023/11/02 01:54:12;;;;;;;5.38;3.08;;;;;;;;;;4996004;28;20018;-79
2023/11/02 01:56:58;;;;;;;4.83;3.17;;;;;;;;;;4979562;28;20034;-79
2023/11/02 01:59:39;;;;;;;6.50;3.47;;;;;;;;;;4978825;28;20022;-79
2023/11/02 02:02:48;;;;;;;5.55;2.92;;;;;;;;;;4995739;28;20030;-79
2023/11/02 02:05:19;;;;;;;6.20;2.78;;;;;;;;;;4978174;28;20620;-80
2023/11/02 02:07:54;;;;;;;6.47;3.45;;;;;;;;;;4995995;28;20393;-79
2023/11/02 02:10:28;;;;;;;7.32;3.15;;;;;;;;;;4979469;28;20038;-79
2023/11/02 02:13:11;;;;;;;5.00;3.03;;;;;;;;;;5007198;28;20120;-79
2023/11/02 02:16:11;;;;;;;8.82;3.90;;;;;;;;;;4978290;28;20022;-80
2023/11/02 02:19:10;;;;;;;6.38;3.17;;;;;;;;;;4975172;28;20048;-79
2023/11/02 02:21:45;;;;;;;8.55;3.40;;;;;;;;;;4978459;28;20104;-80
2023/11/02 02:24:41;;;;;;;6.35;2.92;;;;;;;;;;4977351;28;20034;-79
2023/11/02 02:27:31;;;;;;;7.93;4.07;;;;;;;;;;4968889;28;20045;-79
2023/11/02 02:30:17;;;;;;;6.72;3.55;;;;;;;;;;4993961;28;20034;-79
2023/11/02 02:33:01;;;;;;;5.75;4.22;;;;;;;;;;4977956;28;20018;-80
2023/11/02 02:35:41;;;;;;;6.93;3.13;;;;;;;;;;4978169;28;20057;-80
2023/11/02 02:38:20;;;;;;;7.10;3.58;;;;;;;;;;4995241;28;20390;-79
2023/11/02 02:40:58;;;;;;;6.47;3.30;;;;;;;;;;4977904;28;20065;-78
2023/11/02 02:43:26;;;;;;;6.05;2.75;;;;;;;;;;4978316;28;20517;-79
2023/11/02 02:45:54;;;;;;;4.05;2.92;;;;;;;;;;4978501;28;20022;-80
2023/11/02 02:48:21;;;;;;;5.85;3.67;;;;;;;;;;5011320;28;20044;-80
2023/11/02 02:50:50;;;;;;;6.03;3.53;;;;;;;;;;4997718;28;20038;-80
2023/11/02 02:53:18;;;;;;;5.20;3.17;;;;;;;;;;5015838;28;20476;-78
2023/11/02 02:55:49;;;;;;;4.65;3.47;;;;;;;;;;4996615;28;20054;-79
2023/11/02 02:58:19;;;;;;;9.15;4.32;;;;;;;;;;4990497;28;20029;-79
2023/11/02 03:00:47;;;;;;;4.20;3.03;;;;;;;;;;4994829;28;20027;-79
2023/11/02 03:03:16;;;;;;;10.60;3.35;;;;;;;;;;4994527;28;20061;-80
2023/11/02 03:05:43;;;;;;;5.13;2.45;;;;;;;;;;4993764;28;20497;-79
2023/11/02 03:08:10;;;;;;;7.10;3.67;;;;;;;;;;4976384;28;20490;-79
2023/11/02 03:10:38;;;;;;;8.65;3.65;;;;;;;;;;4993852;28;20092;-79
2023/11/02 03:13:06;;;;;;;8.80;4.13;;;;;;;;;;4976363;28;20272;-78
2023/11/02 03:15:36;;;;;;;6.53;3.03;;;;;;;;;;4994791;28;20037;-80
2023/11/02 03:18:12;;;;;;;7.22;3.75;;;;;;;;;;4977310;28;20057;-78
2023/11/02 03:20:40;;;;;;;6.07;3.60;;;;;;;;;;4994448;28;20038;-79
2023/11/02 03:23:27;;;;;;;6.82;3.60;;;;;;;;;;4976693;28;20030;-79
2023/11/02 03:26:11;;;;;;;11.05;2.97;;;;;;;;;;4976857;28;20037;-80
2023/11/02 03:28:48;;;;;;;6.15;3.13;;;;;;;;;;4976990;28;20037;-79
2023/11/02 03:31:26;;;;;;;4.70;2.83;;;;;;;;;;4976710;28;20038;-80
2023/11/02 03:33:52;;;;;;;6.35;3.20;;;;;;;;;;4993347;28;20438;-79
2023/11/02 03:36:28;;;;;;;6.35;3.38;;;;;;;;;;4996175;28;20368;-79
2023/11/02 03:39:10;;;;;;;7.20;3.17;;;;;;;;;;5013895;28;20441;-79
2023/11/02 03:42:31;;;;;;;5.57;3.40;;;;;;;;;;4998545;28;20394;-79
2023/11/02 03:45:00;;;;;;;6.22;2.90;;;;;;;;;;4885031;29;20516;-79
2023/11/02 03:47:45;;;;;;;4.22;2.60;;;;;;;;;;4973471;28;20041;-80
2023/11/02 03:50:22;;;;;;;7.10;2.90;;;;;;;;;;4992214;28;20359;-79
2023/11/02 03:53:01;;;;;;;5.00;3.30;;;;;;;;;;4976348;28;20096;-79
2023/11/02 03:55:56;;;;;;;9.20;3.72;;;;;;;;;;4992841;28;20044;-78
2023/11/02 03:58:40;;;;;;;8.90;3.17;;;;;;;;;;4963271;28;20125;-79
2023/11/02 04:01:14;;;;;;;4.85;3.22;;;;;;;;;;4992490;28;20038;-79
2023/11/02 04:03:44;;;;;;;6.53;3.55;;;;;;;;;;4993595;28;20026;-78
2023/11/02 04:06:15;;;;;;;6.80;3.70;;;;;;;;;;4991904;28;20034;-80
2023/11/02 04:08:45;;;;;;;6.13;3.50;;;;;;;;;;4992298;28;20461;-79
2023/11/02 04:11:26;;;;;;;8.30;4.15;;;;;;;;;;4976042;28;20200;-78
2023/11/02 04:14:16;;;;;;;9.45;4.20;;;;;;;;;;4993153;28;20045;-79
2023/11/02 04:16:41;;;;;;;9.60;4.07;;;;;;;;;;4993577;28;20037;-79
2023/11/02 04:19:10;;;;;;;6.70;4.20;;;;;;;;;;4974806;28;20022;-79
2023/11/02 04:21:36;;;;;;;8.05;4.35;;;;;;;;;;4988233;28;20398;-79
2023/11/02 04:24:01;;;;;;;10.35;4.30;;;;;;;;;;5012392;28;20091;-78
2023/11/02 04:26:32;;;;;;;8.75;4.32;;;;;;;;;;4995645;28;20029;-80
2023/11/02 04:28:58;;;;;;;7.03;4.43;;;;;;;;;;4995011;28;20022;-80
2023/11/02 04:31:24;;;;;;;6.35;4.13;;;;;;;;;;4994801;28;20074;-80
2023/11/02 04:33:49;;;;;;;9.52;4.70;;;;;;;;;;4983746;28;20035;-79
2023/11/02 04:36:15;;;;;;;11.23;4.22;;;;;;;;;;4982273;28;20124;-79
2023/11/02 04:38:41;;;;;;;11.55;4.63;;;;;;;;;;4995044;28;20129;-79
2023/11/02 04:41:06;;;;;;;6.85;4.60;;;;;;;;;;4994799;28;20026;-78
2023/11/02 04:43:32;;;;;;;8.05;4.30;;;;;;;;;;5013276;28;20033;-78
2023/11/02 04:45:57;;;;;;;7.20;4.38;;;;;;;;;;4994692;28;20018;-79
2023/11/02 04:48:23;;;;;;;7.28;3.75;;;;;;;;;;4995728;28;20168;-80
2023/11/02 04:50:55;;;;;;;7.88;4.00;;;;;;;;;;4995341;28;20033;-79
2023/11/02 04:53:22;;;;;;;11.80;4.45;;;;;;;;;;4998639;28;20107;-79
2023/11/02 04:55:48;;;;;;;10.23;4.43;;;;;;;;;;5017261;28;20030;-80
2023/11/02 04:58:14;;;;;;;6.70;4.03;;;;;;;;;;4999052;28;20030;-78
2023/11/02 05:00:39;;;;;;;5.45;4.43;;;;;;;;;;4983129;28;20040;-80
2023/11/02 05:03:05;;;;;;;9.07;4.75;;;;;;;;;;5016410;28;20108;-79
2023/11/02 05:05:31;;;;;;;9.65;4.68;;;;;;;;;;5015830;28;20076;-81
2023/11/02 05:07:58;;;;;;;9.82;4.22;;;;;;;;;;4998298;28;20088;-80
2023/11/02 05:10:24;;;;;;;8.57;4.67;;;;;;;;;;5016620;28;20357;-79
2023/11/02 05:12:49;;;;;;;8.10;4.90;;;;;;;;;;4998370;28;20065;-79
2023/11/02 05:15:15;;;;;;;10.35;6.43;;;;;;;;;;5015763;28;20030;-79
2023/11/02 05:17:41;;;;;;;5.57;4.10;;;;;;;;;;4998394;28;20476;-79
2023/11/02 05:20:07;;;;;;;6.00;3.60;;;;;;;;;;4998523;28;20025;-80
2023/11/02 05:22:33;;;;;;;9.45;4.43;;;;;;;;;;4979456;28;20339;-79
2023/11/02 05:24:58;;;;;;;8.73;4.28;;;;;;;;;;4979495;28;20027;-79
2023/11/02 05:27:25;;;;;;;10.13;4.32;;;;;;;;;;4979356;28;20036;-79
2023/11/02 05:29:51;;;;;;;10.13;4.65;;;;;;;;;;4997019;28;20046;-79
2023/11/02 05:32:17;;;;;;;8.27;5.43;;;;;;;;;;4980915;28;20025;-79
2023/11/02 05:34:43;;;;;;;8.73;4.30;;;;;;;;;;4998683;28;20084;-79
2023/11/02 05:37:10;;;;;;;8.13;4.50;;;;;;;;;;4998835;28;20493;-79
2023/11/02 05:39:37;;;;;;;7.88;4.35;;;;;;;;;;5016363;28;20100;-80
2023/11/02 05:42:02;;;;;;;9.80;4.80;;;;;;;;;;4998582;28;20044;-79
2023/11/02 05:44:28;;;;;;;7.63;4.45;;;;;;;;;;4998294;28;20014;-79
2023/11/02 05:46:53;;;;;;;7.00;4.63;;;;;;;;;;4995507;28;20038;-79
2023/11/02 05:49:19;;;;;;;6.97;4.80;;;;;;;;;;4976843;28;20034;-80
2023/11/02 05:51:47;;;;;;;8.25;4.40;;;;;;;;;;4996840;28;20482;-80
2023/11/02 05:54:12;;;;;;;19.93;4.90;;;;;;;;;;4978760;28;20133;-78
2023/11/02 05:56:38;;;;;;;9.02;4.80;;;;;;;;;;4979108;28;20129;-80
2023/11/02 05:59:05;;;;;;;6.97;5.20;;;;;;;;;;4996039;28;20030;-80
2023/11/02 06:01:31;;;;;;;9.80;5.30;;;;;;;;;;4978781;28;20026;-79
2023/11/02 06:03:58;;;;;;;11.50;4.93;;;;;;;;;;4962246;28;20035;-80
2023/11/02 06:06:24;;;;;;;8.77;5.20;;;;;;;;;;4996640;28;20191;-80
2023/11/02 06:08:49;;;;;;;18.23;5.68;;;;;;;;;;4996363;28;20489;-78
2023/11/02 06:11:15;;;;;;;11.25;5.20;;;;;;;;;;4995624;28;20517;-80
2023/11/02 06:13:41;;;;;;;14.17;5.47;;;;;;;;;;4978722;28;20113;-80
2023/11/02 06:16:07;;;;;;;11.13;5.97;;;;;;;;;;4997162;28;20072;-80
2023/11/02 06:18:32;;;;;;;10.70;6.13;;;;;;;;;;4979619;28;20041;-79
2023/11/02 06:20:58;;;;;;;13.30;5.45;;;;;;;;;;4982109;28;20030;-79
2023/11/02 06:23:24;;;;;;;12.90;5.70;;;;;;;;;;4998885;28;20124;-80
2023/11/02 06:25:50;;;;;;;14.57;6.17;;;;;;;;;;5015982;28;20057;-80
2023/11/02 06:28:18;;;;;;;10.43;5.13;;;;;;;;;;5015760;28;20021;-80
2023/11/02 06:30:43;;;;;;;10.87;6.13;;;;;;;;;;4998833;28;20092;-81
2023/11/02 06:33:09;;;;;;;11.50;6.07;;;;;;;;;;5011542;28;20323;-80
2023/11/02 06:35:35;;;;;;;15.05;8.70;;;;;;;;;;4977625;28;20033;-79
2023/11/02 06:38:03;;;;;;;14.57;6.23;;;;;;;;;;4995818;28;20030;-80
2023/11/02 06:40:30;;;;;;;10.18;5.20;;;;;;;;;;4980738;28;20026;-81
2023/11/02 06:42:58;;;;;;;8.60;4.85;;;;;;;;;;5019235;28;20080;-81
2023/11/02 06:45:23;;;;;;;11.60;5.13;;;;;;;;;;4998777;28;20093;-81
2023/11/02 06:47:50;;;;;;;13.80;5.85;;;;;;;;;;5016235;28;20507;-80
2023/11/02 06:50:15;;;;;;;11.05;4.93;;;;;;;;;;5014030;28;20061;-80
2023/11/02 06:52:41;;;;;;;14.35;5.97;;;;;;;;;;5008515;28;20038;-80
2023/11/02 06:55:07;;;;;;;9.07;5.55;;;;;;;;;;5012431;28;20021;-79
2023/11/02 06:57:33;;;;;;;12.27;5.93;;;;;;;;;;4992740;28;20121;-79
2023/11/02 06:59:58;;;;;;;8.63;5.40;;;;;;;;;;4987184;28;20030;-81
2023/11/02 07:02:24;;;;;;;16.52;5.85;;;;;;;;;;5016021;28;20033;-79
2023/11/02 07:04:55;;;;;;;10.18;5.45;;;;;;;;;;4993250;28;20488;-79
2023/11/02 07:07:21;;;;;;;14.70;7.40;;;;;;;;;;4996751;28;20033;-81
2023/11/02 07:09:51;;;;;;;16.08;6.70;;;;;;;;;;5010565;28;20033;-81
2023/11/02 07:12:17;;;;;;;11.68;5.40;;;;;;;;;;4995098;28;20496;-81
2023/11/02 07:14:43;;;;;;;13.95;5.93;;;;;;;;;;4993967;28;20030;-81
2023/11/02 07:17:09;;;;;;;12.35;5.55;;;;;;;;;;4998239;28;20044;-83
2023/11/02 07:19:34;;;;;;;13.05;5.45;;;;;;;;;;4998232;28;20037;-81
2023/11/02 07:22:00;;;;;;;10.85;6.28;;;;;;;;;;4999142;28;20370;-82
2023/11/02 07:24:32;;;;;;;8.93;4.93;;;;;;;;;;5005997;28;20034;-83
2023/11/02 07:26:58;;;;;;;9.45;4.45;;;;;;;;;;5015044;28;20026;-81
2023/11/02 07:29:24;;;;;;;7.80;4.97;;;;;;;;;;5010664;28;20037;-83
2023/11/02 07:31:50;;;;;;;9.55;5.15;;;;;;;;;;5004607;28;20564;-83
2023/11/02 07:34:15;;;;;;;13.02;6.93;;;;;;;;;;5007715;28;20034;-84
2023/11/02 07:36:41;;;;;;;14.75;5.60;;;;;;;;;;4998743;28;20030;-82
2023/11/02 07:39:08;;;;;;;11.57;7.57;;;;;;;;;;5013540;28;20066;-83
2023/11/02 07:41:34;;;;;;;7.70;5.47;;;;;;;;;;5000561;28;20034;-81
2023/11/02 07:43:59;;;;;;;11.77;5.03;;;;;;;;;;5002425;28;20028;-83
2023/11/02 07:46:25;;;;;;;9.88;5.32;;;;;;;;;;4998865;28;20033;-82
2023/11/02 07:48:51;;;;;;;21.45;6.35;;;;;;;;;;5006919;28;20108;-82
2023/11/02 07:51:17;;;;;;;8.00;4.55;;;;;;;;;;5011636;28;20037;-83
2023/11/02 07:53:42;;;;;;;10.82;4.70;;;;;;;;;;4982434;28;20095;-79
2023/11/02 07:56:11;;;;;;;9.77;5.75;;;;;;;;;;5010839;28;20026;-79
2023/11/02 07:58:42;;;;;;;5.82;4.55;;;;;;;;;;5011555;28;20405;-81
2023/11/02 08:01:11;;;;;;;7.97;4.22;;;;;;;;;;5012572;28;20041;-81
2023/11/02 08:03:37;;;;;;;7.70;4.13;;;;;;;;;;5015336;28;20134;-81
2023/11/02 08:06:06;;;;;;;11.43;6.07;;;;;;;;;;5009049;28;20561;-79
2023/11/02 08:08:47;;;;;;;9.80;4.82;;;;;;;;;;5001523;28;20465;-84
2023/11/02 08:11:17;;;;;;;7.10;5.23;;;;;;;;;;5017349;28;20468;-81
2023/11/02 08:13:51;;;;;;;8.07;5.93;;;;;;;;;;5013296;28;20030;-81
2023/11/02 08:16:21;;;;;;;10.88;5.47;;;;;;;;;;5012578;28;20462;-78
2023/11/02 08:18:46;;;;;;;13.82;5.90;;;;;;;;;;4976901;28;20048;-79
2023/11/02 08:21:15;;;;;;;10.60;5.57;;;;;;;;;;5011823;28;20392;-83
2023/11/02 08:23:40;;;;;;;8.27;5.63;;;;;;;;;;5012264;28;20505;-82
2023/11/02 08:26:13;;;;;;;9.02;5.30;;;;;;;;;;4996544;28;20073;-83
2023/11/02 08:28:40;;;;;;;15.73;6.43;;;;;;;;;;5019796;28;20022;-82
2023/11/02 08:31:06;;;;;;;10.88;6.50;;;;;;;;;;5018535;28;20029;-80
2023/11/02 08:33:36;;;;;;;22.48;13.20;;;;;;;;;;5012019;28;20037;-80
2023/11/02 08:36:04;;;;;;;;;;;;;;;;;;5016355;28;20022;-78
2023/11/02 08:38:29;;;;;;;9.40;5.93;;;;;;;;;;4991917;28;20685;-81
2023/11/02 08:40:55;;;;;;;9.80;5.68;;;;;;;;;;4997944;28;20062;-82
2023/11/02 08:43:23;;;;;;;9.15;6.43;;;;;;;;;;5004694;28;20045;-81
2023/11/02 08:45:51;;;;;;;14.35;6.25;;;;;;;;;;5014204;28;20025;-80
2023/11/02 08:48:17;;;;;;;11.45;6.50;;;;;;;;;;5013653;28;20026;-78
2023/11/02 08:50:46;;;;;;;14.77;6.85;;;;;;;;;;4999938;28;20108;-79
2023/11/02 08:53:12;;;;;;;8.27;5.50;;;;;;;;;;4995751;28;20022;-80
2023/11/02 08:55:37;;;;;;;26.58;13.70;;;;;;;;;;5012414;28;20957;-82
2023/11/02 08:58:04;;;;;;;12.07;5.85;;;;;;;;;;4993351;28;20100;-79
2023/11/02 09:00:33;;;;;;;10.07;6.68;;;;;;;;;;5010510;28;20026;-78
2023/11/02 09:02:58;;;;;;;10.07;5.82;;;;;;;;;;4997187;28;20021;-82
2023/11/02 09:05:24;;;;;;;19.48;9.73;;;;;;;;;;5016214;28;20464;-81
2023/11/02 09:07:53;;;;;;;16.35;8.13;;;;;;;;;;4997032;28;20060;-80
2023/11/02 09:10:19;;;;;;;13.77;6.85;;;;;;;;;;4992421;28;20026;-80
2023/11/02 09:12:46;;;;;;;7.07;4.90;;;;;;;;;;5008547;28;20049;-79
2023/11/02 09:15:13;;;;;;;9.15;5.03;;;;;;;;;;5013472;28;20037;-79
2023/11/02 09:17:38;;;;;;;11.80;5.15;;;;;;;;;;4999975;28;20045;-78
2023/11/02 09:20:10;;;;;;;7.35;5.03;;;;;;;;;;4998850;28;20034;-80
2023/11/02 09:22:37;;;;;;;12.13;4.78;;;;;;;;;;4996760;28;20064;-78
2023/11/02 09:25:03;;;;;;;8.68;4.65;;;;;;;;;;4993757;28;20560;-79
2023/11/02 09:27:45;;;;;;;7.63;5.15;;;;;;;;;;5014758;28;20048;-80
2023/11/02 09:30:17;;;;;;;7.30;4.90;;;;;;;;;;5015229;28;20041;-80
2023/11/02 09:32:44;;;;;;;;;;;;;;;;;;4998126;28;20569;-79
2023/11/02 09:35:10;;;;;;;8.20;5.88;;;;;;;;;;5015633;28;20652;-79
2023/11/02 09:37:39;;;;;;;10.65;6.07;;;;;;;;;;4997603;28;20030;-81
2023/11/02 09:40:13;;;;;;;10.18;5.55;;;;;;;;;;5017312;28;20478;-82
2023/11/02 09:42:39;;;;;;;16.98;5.82;;;;;;;;;;5008432;28;20089;-80
2023/11/02 09:45:06;;;;;;;10.68;5.63;;;;;;;;;;5002939;28;20381;-81
2023/11/02 09:47:32;;;;;;;12.85;6.05;;;;;;;;;;5000786;28;20034;-79
2023/11/02 09:50:01;;;;;;;13.05;5.72;;;;;;;;;;5017801;28;20033;-81
2023/11/02 09:52:37;;;;;;;11.15;5.25;;;;;;;;;;5019193;28;20128;-79
2023/11/02 09:55:04;;;;;;;22.35;5.20;;;;;;;;;;5000095;28;20033;-78
2023/11/02 09:57:38;;;;;;;15.15;5.85;;;;;;;;;;5022675;28;20137;-79
2023/11/02 10:00:07;;;;;;;6.78;4.38;;;;;;;;;;4999178;28;20107;-81
2023/11/02 10:02:40;;;;;;;14.25;5.60;;;;;;;;;;4998386;28;20716;-79
2023/11/02 10:05:08;;;;;;;11.82;5.13;;;;;;;;;;5014903;28;20018;-80
2023/11/02 10:44:48;;;;;;;;;;;;;;;;;;;;;
2023/11/02 11:33:50;;;;;;;4.50;2.80;;;;;;;;;;1497219;26;20060;-81
2023/11/02 11:36:27;;;;;;;4.95;3.05;;;;;;;;;;5042071;28;20025;-80
2023/11/02 11:39:06;;;;;;;5.72;2.90;;;;;;;;;;5054441;28;20032;-80
2023/11/02 11:41:44;;;;;;;4.40;2.83;;;;;;;;;;5027216;28;20052;-78
2023/11/02 11:44:23;;;;;;;4.50;2.85;;;;;;;;;;5052488;28;20135;-77
2023/11/02 11:47:02;;;;;;;5.22;3.08;;;;;;;;;;5037915;28;20044;-84
2023/11/02 11:49:41;;;;;;;5.93;3.72;;;;;;;;;;5024243;28;20059;-78
2023/11/02 11:52:28;;;;;;;4.57;3.28;;;;;;;;;;5050345;28;20492;-82
2023/11/02 11:54:54;;;;;;;4.55;2.45;;;;;;;;;;5051138;28;20048;-80
2023/11/02 11:58:06;;;;;;;5.22;3.17;;;;;;;;;;5054053;28;20043;-81
2023/11/02 12:01:15;;;;;;;3.58;2.70;;;;;;;;;;5055506;28;20071;-79
2023/11/02 12:04:07;;;;;;;5.18;3.17;;;;;;;;;;5050614;28;20052;-79
2023/11/02 12:06:49;;;;;;;6.35;3.20;;;;;;;;;;5034941;28;20033;-78
2023/11/02 12:09:35;;;;;;;7.35;3.63;;;;;;;;;;5040634;28;20056;-80
2023/11/02 12:19:45;;;;;;;5.55;3.10;;;;;;;;;;5019575;28;20103;-78
2023/11/02 12:22:12;;;;;;;4.35;2.92;;;;;;;;;;5025653;28;20032;-76
2023/11/02 12:24:38;;;;;;;9.50;3.58;;;;;;;;;;4996879;28;20140;-79
2023/11/02 12:27:10;;;;;;;5.38;3.15;;;;;;;;;;5026334;28;20037;-79
2023/11/02 12:29:36;;;;;;;;;;;;;;;;;;5032543;28;20029;-79
2023/11/02 12:32:01;;;;;;;4.82;2.85;;;;;;;;;;5029377;28;19924;-79
2023/11/02 12:34:27;;;;;;;13.23;3.45;;;;;;;;;;5005341;28;20304;-79
2023/11/02 12:36:52;;;;;;;6.63;3.05;;;;;;;;;;5026156;28;20029;-80
2023/11/02 12:39:20;;;;;;;13.70;3.50;;;;;;;;;;5008959;28;20626;-77
2023/11/02 12:41:47;;;;;;;9.00;4.50;;;;;;;;;;5021795;28;20033;-78
2023/11/02 12:44:17;;;;;;;7.68;3.45;;;;;;;;;;5002594;28;20543;-77
2023/11/02 12:46:44;;;;;;;3.58;3.15;;;;;;;;;;5024534;28;20036;-79
2023/11/02 12:49:22;;;;;;;7.13;3.47;;;;;;;;;;5025522;28;20091;-79
2023/11/02 12:52:01;;;;;;;5.68;3.03;;;;;;;;;;5023115;28;20037;-79
2023/11/02 12:54:28;;;;;;;6.47;3.28;;;;;;;;;;5017971;28;20512;-81
2023/11/02 12:56:58;;;;;;;7.10;3.95;;;;;;;;;;5018813;28;20033;-79
2023/11/02 12:59:24;;;;;;;15.70;4.25;;;;;;;;;;5022569;28;20069;-79
2023/11/02 13:01:59;;;;;;;4.80;3.13;;;;;;;;;;5021516;28;20714;-79
2023/11/02 13:04:32;;;;;;;4.85;3.50;;;;;;;;;;5020361;28;20403;-79
2023/11/02 13:07:24;;;;;;;5.63;3.47;;;;;;;;;;5003476;28;20130;-78
2023/11/02 13:10:06;;;;;;;5.43;4.72;;;;;;;;;;5018395;28;20030;-79
2023/11/02 13:12:34;;;;;;;6.80;3.45;;;;;;;;;;5019842;28;20029;-79
2023/11/02 13:15:11;;;;;;;4.57;2.90;;;;;;;;;;5020181;28;20084;-79
2023/11/02 13:17:43;;;;;;;7.15;3.85;;;;;;;;;;5023955;28;20665;-78
2023/11/02 13:20:14;;;;;;;13.10;4.00;;;;;;;;;;5030485;28;20029;-77
2023/11/02 13:22:45;;;;;;;8.25;3.47;;;;;;;;;;5001217;28;20045;-77
2023/11/02 13:25:11;;;;;;;5.90;3.30;;;;;;;;;;4982229;28;20042;-79
2023/11/02 13:27:38;;;;;;;7.80;3.17;;;;;;;;;;5013753;28;20029;-79
2023/11/02 13:30:04;;;;;;;8.55;3.30;;;;;;;;;;5034226;28;20021;-77
2023/11/02 13:32:30;;;;;;;8.52;4.35;;;;;;;;;;5034937;28;20400;-77
2023/11/02 13:34:56;;;;;;;5.85;3.67;;;;;;;;;;5013257;28;20025;-78
2023/11/02 13:37:23;;;;;;;6.97;4.03;;;;;;;;;;5030240;28;20033;-80
2023/11/02 13:39:49;;;;;;;23.75;3.67;;;;;;;;;;4991756;28;20162;-78
2023/11/02 13:42:15;;;;;;;6.43;2.80;;;;;;;;;;5021413;28;20100;-78
2023/11/02 13:44:47;;;;;;;59.70;6.72;;;;;;;;;;5021515;28;20052;-79
2023/11/02 13:47:13;;;;;;;5.93;3.63;;;;;;;;;;5026479;28;20349;-78
2023/11/02 13:49:39;;;;;;;7.05;2.33;;;;;;;;;;5026266;28;20060;-80
2023/11/02 13:52:05;;;;;;;4.05;2.70;;;;;;;;;;5026132;28;20025;-81
2023/11/02 13:54:32;;;;;;;3.63;2.47;;;;;;;;;;5007691;28;20033;-80
2023/11/02 13:56:58;;;;;;;6.65;2.78;;;;;;;;;;5004166;28;20045;-81
2023/11/02 13:59:24;;;;;;;3.10;2.67;;;;;;;;;;5013263;28;20033;-78
2023/11/02 14:01:50;;;;;;;4.05;2.88;;;;;;;;;;5028080;28;20426;-79
2023/11/02 14:04:15;;;;;;;3.83;3.28;;;;;;;;;;5022725;28;20554;-78
2023/11/02 14:06:43;;;;;;;9.07;3.05;;;;;;;;;;5024288;28;20154;-80
2023/11/02 14:09:09;;;;;;;4.57;2.58;;;;;;;;;;5023879;28;20034;-79
2023/11/02 14:11:34;;;;;;;8.02;2.72;;;;;;;;;;5024988;28;20094;-79
2023/11/02 14:14:01;;;;;;;14.25;5.55;;;;;;;;;;5027041;28;20269;-78
2023/11/02 14:16:38;;;;;;;5.80;2.90;;;;;;;;;;5021641;28;20043;-78
2023/11/02 14:19:04;;;;;;;4.03;2.65;;;;;;;;;;5024691;28;20138;-78
2023/11/02 14:21:31;;;;;;;10.85;5.10;;;;;;;;;;5027595;28;20098;-79
2023/11/02 14:23:57;;;;;;;8.57;3.83;;;;;;;;;;5024585;28;20033;-78
2023/11/02 14:26:24;;;;;;;9.88;3.45;;;;;;;;;;5025194;28;20408;-79
2023/11/02 14:28:50;;;;;;;13.73;3.10;;;;;;;;;;5026890;28;20052;-78
2023/11/02 14:31:16;;;;;;;5.07;2.97;;;;;;;;;;5011164;28;20072;-79
2023/11/02 14:33:43;;;;;;;8.18;4.15;;;;;;;;;;5027797;28;20037;-79
2023/11/02 14:36:12;;;;;;;6.93;2.30;;;;;;;;;;5026772;28;20038;-80
2023/11/02 14:38:39;;;;;;;5.10;2.70;;;;;;;;;;5027440;28;20033;-77
2023/11/02 14:41:05;;;;;;;4.63;2.60;;;;;;;;;;5021956;28;20033;-78
2023/11/02 14:43:31;;;;;;;3.47;2.67;;;;;;;;;;5018726;28;20037;-78
2023/11/02 14:45:58;;;;;;;6.95;3.42;;;;;;;;;;5027155;28;20095;-77
2023/11/02 14:48:23;;;;;;;6.53;3.10;;;;;;;;;;5031231;28;20025;-77
2023/11/02 14:50:49;;;;;;;3.63;2.80;;;;;;;;;;5012799;28;20087;-78
2023/11/02 14:53:15;;;;;;;9.63;3.08;;;;;;;;;;5007212;28;20025;-80
2023/11/02 14:55:40;;;;;;;4.63;2.55;;;;;;;;;;5024672;28;20112;-79
2023/11/02 14:58:06;;;;;;;9.52;3.45;;;;;;;;;;5009011;28;20424;-80
2023/11/02 15:00:31;;;;;;;6.72;3.60;;;;;;;;;;5025724;28;20029;-81
2023/11/02 15:02:57;;;;;;;7.65;3.45;;;;;;;;;;5027948;28;20036;-81
2023/11/02 15:05:23;;;;;;;12.15;3.95;;;;;;;;;;5025674;28;20588;-78
2023/11/02 15:07:48;;;;;;;7.85;3.70;;;;;;;;;;5027860;28;20040;-79
2023/11/02 15:10:14;;;;;;;11.48;4.78;;;;;;;;;;5005696;28;20021;-80
2023/11/02 15:12:40;;;;;;;8.45;3.70;;;;;;;;;;5025435;28;20040;-79
2023/11/02 15:15:07;;;;;;;7.78;3.05;;;;;;;;;;5028129;28;20409;-80
2023/11/02 15:17:32;;;;;;;4.00;3.38;;;;;;;;;;5028761;28;20052;-79
2023/11/02 15:20:05;;;;;;;17.95;4.07;;;;;;;;;;5026173;28;20064;-79
2023/11/02 15:22:33;;;;;;;25.15;6.70;;;;;;;;;;5028189;28;20029;-78
2023/11/02 15:25:05;;;;;;;22.27;5.55;;;;;;;;;;5010299;28;20064;-80
2023/11/02 15:27:32;;;;;;;21.25;5.40;;;;;;;;;;5028499;28;20493;-80
2023/11/02 15:29:58;;;;;;;38.00;7.38;;;;;;;;;;4995923;28;20056;-79
2023/11/02 15:32:24;;;;;;;26.98;6.85;;;;;;;;;;5026635;28;20053;-82
2023/11/02 15:34:56;;;;;;;23.45;5.30;;;;;;;;;;4993316;28;20124;-79
2023/11/02 15:37:22;;;;;;;;;;;;;;;;;;5023326;28;20027;-80
2023/11/02 15:39:47;;;;;;;12.38;3.92;;;;;;;;;;5034050;28;19913;-80
2023/11/02 15:42:13;;;;;;;5.05;2.90;;;;;;;;;;5032358;28;20040;-79
2023/11/02 15:44:41;;;;;;;19.75;5.10;;;;;;;;;;5029390;28;20072;-80
2023/11/02 15:47:07;;;;;;;14.65;4.55;;;;;;;;;;5031396;28;20060;-78
2023/11/02 15:49:32;;;;;;;32.15;5.85;;;;;;;;;;5030501;28;20776;-79
2023/11/02 15:51:58;;;;;;;23.20;4.05;;;;;;;;;;5013998;28;20033;-81
2023/11/02 15:54:25;;;;;;;14.40;4.55;;;;;;;;;;5031477;28;20029;-79
2023/11/02 15:56:51;;;;;;;19.92;5.28;;;;;;;;;;5030717;28;20461;-80
2023/11/02 15:59:17;;;;;;;19.45;6.38;;;;;;;;;;5031603;28;20489;-78
2023/11/02 16:01:43;;;;;;;16.10;5.50;;;;;;;;;;5034375;28;20037;-81
2023/11/02 16:04:10;;;;;;;7.10;3.75;;;;;;;;;;5033401;28;20473;-79
2023/11/02 16:06:36;;;;;;;5.07;3.40;;;;;;;;;;5014384;28;20392;-82
2023/11/02 16:09:02;;;;;;;14.55;4.47;;;;;;;;;;5028528;28;20045;-80
2023/11/02 16:11:28;;;;;;;6.15;3.50;;;;;;;;;;4992733;28;20121;-79
2023/11/02 16:14:02;;;;;;;10.18;3.42;;;;;;;;;;5010011;28;20037;-80
2023/11/02 16:16:29;;;;;;;6.85;3.65;;;;;;;;;;4992349;28;20037;-79
2023/11/02 16:18:54;;;;;;;5.97;3.70;;;;;;;;;;5010049;28;20042;-79
2023/11/02 16:21:28;;;;;;;9.52;3.30;;;;;;;;;;5011196;28;20256;-81
2023/11/02 16:23:56;;;;;;;4.72;3.92;;;;;;;;;;5011947;28;20500;-81
2023/11/02 16:26:24;;;;;;;7.47;3.75;;;;;;;;;;5028528;28;20081;-82
2023/11/02 16:28:52;;;;;;;11.35;4.00;;;;;;;;;;5012734;28;20060;-81
2023/11/02 16:31:24;;;;;;;8.55;4.38;;;;;;;;;;5030178;28;20432;-84